Waco's Hourly Summary for Wednesday, July 11, 2018
Hour Temp
(f)
RH
(%)
Solar Rad.
(MJ/m2)
Rainfall
(in)
Wind
(mph)
7/11/2018 12:00 AM 77 79 0 0 0.38
7/11/2018 1:00 AM 76 79 0 0 0.26
7/11/2018 2:00 AM 76 81 0 0 0.87
7/11/2018 3:00 AM 77 79 0 0 1.34
7/11/2018 4:00 AM 75 79 0 0 0.41
7/11/2018 5:00 AM 74 85 0 0 0.51
7/11/2018 6:00 AM 74 87 0 0 0.35
7/11/2018 7:00 AM 74 89 0.01 0 0.16
7/11/2018 8:00 AM 76 84 0.23 0 0.72
7/11/2018 9:00 AM 82 68 1.12 0 3.05
7/11/2018 10:00 AM 84 62 1.41 0 4.06
7/11/2018 11:00 AM 87 53 1.84 0 3.66
7/11/2018 12:00 PM 91 45 1.81 0 2.63
7/11/2018 1:00 PM 94 37 2.65 0 3.07
7/11/2018 2:00 PM 96 35 3.2 0 4.8
7/11/2018 3:00 PM 97 32 2.63 0 3.01
7/11/2018 4:00 PM 97 32 2.21 0 3.68
7/11/2018 5:00 PM 97 33 1.73 0 4.37
7/11/2018 6:00 PM 95 34 0.96 0 4.73
7/11/2018 7:00 PM 97 34 1.03 0 3.32
7/11/2018 8:00 PM 94 35 0.43 0 3.89
7/11/2018 9:00 PM 90 40 0.03 0 2.92
7/11/2018 10:00 PM 86 49 0 0 1.15
7/11/2018 11:00 PM 84 55 0 0 1.38
Data Summary 85 57 21.29 0.00 2.28